Time;durP1;ratioP1;P1;durP2;ratioP2;P2;SDS_P1;SDS_P2;PMS_P1;PMS_P2;Temp;Humidity;BMP_temperature;BMP_pressure;BME280_temperature;BME280_humidity;BME280_pressure;Samples;Min_cycle;Max_cycle;Signal;HPM_P1;HPM_P2
2023/02/18 00:01:00;;;;;;;3.97;2.00;;;;;;;16.38;100.00;97143.19;5099798;28;20077;-49
2023/02/18 00:03:29;;;;;;;4.35;2.25;;;;;;;16.69;100.00;97150.56;5101913;28;20481;-49
2023/02/18 00:05:57;;;;;;;4.13;2.08;;;;;;;16.33;100.00;97134.88;5096991;28;20071;-48
2023/02/18 00:08:25;;;;;;;2.92;1.90;;;;;;;16.79;100.00;97131.75;5104911;28;20440;-52
2023/02/18 00:10:53;;;;;;;2.88;1.63;;;;;;;16.30;100.00;97137.84;5092276;28;20107;-48
2023/02/18 00:13:23;;;;;;;3.05;2.08;;;;;;;16.66;100.00;97139.41;5104776;27;20075;-54
2023/02/18 00:15:51;;;;;;;2.63;1.70;;;;;;;16.09;100.00;97113.53;5097407;28;20087;-47
2023/02/18 00:18:19;;;;;;;5.03;1.48;;;;;;;16.44;100.00;97131.03;5100699;27;20083;-51
2023/02/18 00:20:48;;;;;;;2.95;1.73;;;;;;;15.95;100.00;97130.13;5106306;27;20066;-51
2023/02/18 00:23:16;;;;;;;3.75;2.05;;;;;;;16.53;100.00;97140.72;5107354;27;20087;-49
2023/02/18 00:25:44;;;;;;;4.30;2.03;;;;;;;16.14;100.00;97140.50;5106182;27;20083;-47
2023/02/18 00:28:13;;;;;;;3.40;2.00;;;;;;;16.51;100.00;97140.03;5106015;27;20101;-49
2023/02/18 00:30:42;;;;;;;4.68;2.13;;;;;;;16.28;100.00;97134.53;5100223;27;20094;-51
2023/02/18 00:33:11;;;;;;;3.63;1.87;;;;;;;16.70;100.00;97128.25;5100996;27;20479;-49
2023/02/18 00:35:39;;;;;;;3.63;1.65;;;;;;;16.20;100.00;97129.19;5112032;27;20100;-48
2023/02/18 00:38:07;;;;;;;3.75;1.80;;;;;;;16.21;100.00;97122.88;5101209;27;20079;-49
2023/02/18 00:40:37;;;;;;;3.17;2.08;;;;;;;16.02;100.00;97120.50;5099083;27;20632;-49
2023/02/18 00:43:05;;;;;;;4.25;1.75;;;;;;;16.12;100.00;97119.34;5096407;27;20084;-50
2023/02/18 00:45:34;;;;;;;3.30;1.73;;;;;;;16.51;100.00;97123.22;5101123;27;20082;-52
2023/02/18 00:48:04;;;;;;;2.55;1.80;;;;;;;16.06;100.00;97104.03;5100892;27;20468;-53
2023/02/18 00:50:32;;;;;;;4.10;1.83;;;;;;;15.84;100.00;97121.44;5099153;27;20089;-51
2023/02/18 00:53:00;;;;;;;5.18;1.67;;;;;;;16.06;100.00;97120.00;5104917;27;20083;-49
2023/02/18 00:55:28;;;;;;;6.65;2.13;;;;;;;15.97;100.00;97126.31;5104867;27;20083;-53
2023/02/18 00:57:56;;;;;;;3.35;2.22;;;;;;;15.90;100.00;97109.34;5098819;27;20063;-48
2023/02/18 01:00:25;;;;;;;3.92;2.05;;;;;;;15.94;100.00;97101.88;5101358;27;20079;-48
2023/02/18 01:02:53;;;;;;;3.75;1.92;;;;;;;16.16;100.00;97121.69;5106817;27;20082;-50
2023/02/18 01:05:23;;;;;;;3.67;2.10;;;;;;;16.20;100.00;97115.03;5093644;27;20072;-48
2023/02/18 01:07:51;;;;;;;6.77;1.87;;;;;;;16.12;100.00;97113.22;5105703;27;20499;-51
2023/02/18 01:10:19;;;;;;;3.10;1.88;;;;;;;16.24;100.00;97121.69;5091477;27;20076;-47
2023/02/18 01:12:48;;;;;;;4.68;2.40;;;;;;;15.90;100.00;97104.84;5105293;27;20071;-49
2023/02/18 01:15:16;;;;;;;3.00;1.60;;;;;;;16.04;100.00;97121.19;5097447;27;20083;-51
2023/02/18 01:17:45;;;;;;;3.00;1.70;;;;;;;16.16;100.00;97122.53;5096108;27;20106;-48
2023/02/18 01:20:14;;;;;;;3.67;1.95;;;;;;;16.16;100.00;97127.03;5104043;27;20080;-55
2023/02/18 01:22:44;;;;;;;5.15;2.20;;;;;;;16.13;100.00;97112.19;5096319;27;20083;-47
2023/02/18 01:25:13;;;;;;;3.42;1.50;;;;;;;16.15;100.00;97131.50;5095835;28;20071;-48
2023/02/18 01:27:41;;;;;;;4.18;1.90;;;;;;;16.19;100.00;97118.72;5111047;27;20188;-47
2023/02/18 01:30:14;;;;;;;3.70;1.60;;;;;;;16.24;100.00;97114.56;5101531;27;20076;-49
2023/02/18 01:32:42;;;;;;;5.63;2.13;;;;;;;16.22;100.00;97102.41;5097867;27;20083;-50
2023/02/18 01:35:12;;;;;;;4.30;1.80;;;;;;;16.40;100.00;97110.25;5096927;27;20094;-51
2023/02/18 01:37:40;;;;;;;2.78;1.67;;;;;;;16.25;100.00;97108.25;5099259;27;20078;-56
2023/02/18 01:40:11;;;;;;;3.15;1.55;;;;;;;16.63;100.00;97103.28;5101113;27;20071;-53
2023/02/18 01:42:40;;;;;;;3.70;2.10;;;;;;;16.78;100.00;97098.97;5092442;27;20535;-47
2023/02/18 01:45:50;;;;;;;6.05;2.13;;;;;;;16.48;100.00;97107.59;5105268;27;20087;-50
2023/02/18 01:48:22;;;;;;;2.03;1.38;;;;;;;16.71;100.00;97110.44;5097953;28;20060;-55
2023/02/18 01:50:52;;;;;;;3.28;1.90;;;;;;;16.99;100.00;97094.94;5100409;27;20464;-53
2023/02/18 01:53:21;;;;;;;;;;;;;;;16.56;100.00;97110.28;5113090;27;20086;-52
2023/02/18 01:55:51;;;;;;;2.67;1.83;;;;;;;16.13;100.00;97118.34;5102940;27;20407;-50
2023/02/18 01:58:20;;;;;;;2.00;1.17;;;;;;;16.79;100.00;97107.78;5102315;27;20087;-53
2023/02/18 02:00:48;;;;;;;2.97;1.80;;;;;;;16.29;100.00;97098.94;5098733;27;20772;-48
2023/02/18 02:03:17;;;;;;;4.10;1.80;;;;;;;16.54;100.00;97102.44;5097125;27;20498;-49
2023/02/18 02:05:45;;;;;;;4.72;1.67;;;;;;;16.58;100.00;97097.59;5098314;27;20083;-51
2023/02/18 02:08:13;;;;;;;2.50;1.48;;;;;;;16.58;100.00;97092.28;5107649;27;20090;-52
2023/02/18 02:10:53;;;;;;;4.72;2.20;;;;;;;16.83;100.00;97087.81;5097290;27;20514;-54
2023/02/18 02:13:29;;;;;;;3.10;1.70;;;;;;;16.47;100.00;97088.13;5102635;27;20071;-53
2023/02/18 02:16:00;;;;;;;1.80;1.45;;;;;;;16.57;100.00;97080.81;5096503;27;20221;-51
2023/02/18 02:18:39;;;;;;;4.25;2.22;;;;;;;16.40;100.00;97065.81;5093094;28;20075;-53
2023/02/18 02:22:03;;;;;;;2.80;2.10;;;;;;;16.46;100.00;97056.34;5093939;27;20083;-49
2023/02/18 02:25:02;;;;;;;3.90;2.03;;;;;;;16.17;100.00;97072.78;5100997;27;20076;-52
2023/02/18 02:27:47;;;;;;;2.67;1.48;;;;;;;16.16;100.00;97068.47;5101532;27;20072;-54
2023/02/18 02:30:36;;;;;;;3.53;1.77;;;;;;;16.88;100.00;97071.31;5097025;27;20083;-46
2023/02/18 02:33:29;;;;;;;5.82;1.70;;;;;;;16.56;100.00;97070.31;5094831;28;20773;-52
2023/02/18 02:36:03;;;;;;;5.40;2.47;;;;;;;16.39;100.00;97077.47;5103556;27;20083;-53
2023/02/18 02:38:36;;;;;;;3.08;1.60;;;;;;;16.52;100.00;97063.69;5099483;28;20075;-51
2023/02/18 02:41:13;;;;;;;3.80;2.17;;;;;;;16.67;100.00;97058.50;5101799;27;20531;-52
2023/02/18 02:43:50;;;;;;;3.20;2.17;;;;;;;16.58;100.00;97057.66;5101134;27;20083;-52
2023/02/18 02:46:21;;;;;;;3.00;1.75;;;;;;;16.17;100.00;97057.66;5100036;27;20075;-53
2023/02/18 02:48:57;;;;;;;6.00;1.50;;;;;;;16.06;100.00;97050.81;5092704;27;20536;-51
2023/02/18 02:51:29;;;;;;;4.60;1.95;;;;;;;16.32;100.00;97034.72;5097789;27;20090;-50
2023/02/18 02:54:10;;;;;;;4.05;2.40;;;;;;;16.42;100.00;97041.72;5107237;27;20074;-52
2023/02/18 02:56:38;;;;;;;;;;;;;;;16.50;100.00;97047.84;5091841;27;20117;-54
2023/02/18 02:59:10;;;;;;;2.90;1.77;;;;;;;15.99;100.00;97036.50;5103724;27;20653;-52
2023/02/18 03:01:47;;;;;;;3.10;1.85;;;;;;;16.30;100.00;97043.88;5111104;27;20083;-52
2023/02/18 03:04:40;;;;;;;4.53;2.00;;;;;;;16.29;100.00;97052.84;5096640;27;20075;-52
2023/02/18 03:07:40;;;;;;;3.95;1.88;;;;;;;15.90;100.00;97056.16;5092043;27;20094;-52
2023/02/18 03:10:18;;;;;;;2.58;1.58;;;;;;;15.89;100.00;97062.44;5090305;28;20082;-49
2023/02/18 03:12:51;;;;;;;4.30;2.13;;;;;;;16.49;100.00;97051.53;5095676;27;20397;-54
2023/02/18 03:15:23;;;;;;;3.17;1.80;;;;;;;16.11;100.00;97045.03;5095387;27;20511;-52
2023/02/18 03:17:57;;;;;;;3.45;1.92;;;;;;;16.16;100.00;97055.16;5094906;28;20079;-49
2023/02/18 03:20:27;;;;;;;2.88;1.95;;;;;;;16.14;100.00;97047.38;5100935;27;20086;-48
2023/02/18 03:22:58;;;;;;;2.97;1.60;;;;;;;16.29;100.00;97047.53;5095977;28;20076;-52
2023/02/18 03:25:26;;;;;;;3.85;1.70;;;;;;;15.89;100.00;97034.00;5093066;28;20102;-48
2023/02/18 03:27:56;;;;;;;3.00;1.90;;;;;;;16.24;100.00;97031.22;5100753;27;20086;-52
2023/02/18 03:30:29;;;;;;;3.13;2.00;;;;;;;16.60;100.00;97032.53;5100841;27;20084;-50
2023/02/18 03:33:01;;;;;;;3.63;1.63;;;;;;;16.34;100.00;97027.41;5095664;28;21939;-49
2023/02/18 03:35:29;;;;;;;3.08;1.70;;;;;;;16.20;100.00;97036.03;5096168;28;20078;-51
2023/02/18 03:38:02;;;;;;;4.03;2.00;;;;;;;16.48;100.00;97033.03;5102995;27;20110;-53
2023/02/18 03:40:31;;;;;;;1.65;1.17;;;;;;;16.07;100.00;97041.88;5096827;28;20093;-50
2023/02/18 03:42:59;;;;;;;4.80;1.40;;;;;;;16.02;100.00;97028.22;5093885;28;20506;-49
2023/02/18 03:45:28;;;;;;;2.95;1.63;;;;;;;16.09;100.00;97041.69;5090153;28;20083;-48
2023/02/18 03:47:56;;;;;;;4.88;2.00;;;;;;;16.54;100.00;97029.72;5095537;27;20080;-53
2023/02/18 03:50:24;;;;;;;2.60;1.80;;;;;;;16.48;100.00;97039.22;5097215;27;20102;-51
2023/02/18 03:52:53;;;;;;;9.27;1.77;;;;;;;16.46;100.00;97035.06;5121065;27;20522;-51
2023/02/18 03:55:22;;;;;;;2.75;1.60;;;;;;;16.15;100.00;97041.03;5100278;27;20084;-50
2023/02/18 03:57:51;;;;;;;2.47;1.70;;;;;;;15.88;100.00;97042.16;5102706;27;20083;-49
2023/02/18 04:00:20;;;;;;;3.80;1.70;;;;;;;15.66;100.00;97038.31;5105972;27;20067;-49
2023/02/18 04:02:48;;;;;;;2.47;1.63;;;;;;;16.01;100.00;97045.19;5100477;27;20725;-51
2023/02/18 04:05:17;;;;;;;2.72;1.67;;;;;;;16.27;100.00;97050.34;5105877;27;20115;-50
2023/02/18 04:07:45;;;;;;;4.13;1.77;;;;;;;15.71;100.00;97043.94;5101465;27;20090;-50
2023/02/18 04:10:13;;;;;;;3.80;1.60;;;;;;;16.05;100.00;97046.50;5099695;27;20090;-51
2023/02/18 04:12:43;;;;;;;2.80;1.38;;;;;;;16.20;100.00;97037.88;5095077;27;20125;-49
2023/02/18 04:15:12;;;;;;;3.50;1.83;;;;;;;15.95;100.00;97045.00;5096611;27;20075;-51
2023/02/18 04:17:40;;;;;;;2.95;1.67;;;;;;;16.13;100.00;97051.81;5096465;27;20083;-53
2023/02/18 04:20:10;;;;;;;2.67;1.67;;;;;;;16.17;100.00;97047.00;5106601;27;20459;-49
2023/02/18 04:22:38;;;;;;;2.67;1.52;;;;;;;15.88;100.00;97044.81;5095025;27;20479;-49
2023/02/18 04:25:07;;;;;;;2.83;1.80;;;;;;;15.92;100.00;97053.31;5096322;27;20072;-47
2023/02/18 04:27:35;;;;;;;3.38;1.50;;;;;;;16.20;100.00;97056.50;5096075;28;20554;-50
2023/02/18 04:30:06;;;;;;;2.75;1.70;;;;;;;15.85;100.00;97053.13;5101477;27;20283;-52
2023/02/18 04:32:35;;;;;;;2.42;1.52;;;;;;;15.70;100.00;97063.56;5094011;27;20083;-51
2023/02/18 04:35:03;;;;;;;3.20;1.58;;;;;;;15.68;100.00;97057.56;5099419;27;20078;-52
2023/02/18 04:37:32;;;;;;;3.15;1.58;;;;;;;15.58;100.00;97056.84;5101417;27;20082;-48
2023/02/18 04:40:00;;;;;;;2.75;1.73;;;;;;;15.53;100.00;97054.66;5095771;28;20539;-53
2023/02/18 04:42:28;;;;;;;2.00;1.60;;;;;;;15.85;100.00;97061.09;5108475;27;20093;-52
2023/02/18 04:44:56;;;;;;;2.78;1.60;;;;;;;15.85;100.00;97058.44;5102374;27;20164;-52
2023/02/18 04:47:26;;;;;;;3.83;1.50;;;;;;;15.96;100.00;97055.47;5095900;27;20075;-51
2023/02/18 04:49:55;;;;;;;2.00;1.50;;;;;;;15.55;100.00;97063.28;5103535;27;20071;-53
2023/02/18 04:52:23;;;;;;;2.35;1.30;;;;;;;15.68;100.00;97073.53;5100358;27;20114;-52
2023/02/18 04:54:51;;;;;;;2.42;1.55;;;;;;;15.78;100.00;97081.38;5109895;27;20070;-52
2023/02/18 04:57:19;;;;;;;2.10;1.33;;;;;;;15.70;100.00;97076.84;5097959;27;20181;-53
2023/02/18 04:59:48;;;;;;;2.22;1.25;;;;;;;15.72;100.00;97066.03;5096210;28;20771;-54
2023/02/18 05:02:16;;;;;;;1.73;1.27;;;;;;;15.78;100.00;97074.22;5102048;27;20090;-52
2023/02/18 05:04:45;;;;;;;2.78;1.27;;;;;;;15.74;100.00;97062.25;5104745;27;20086;-54
2023/02/18 05:07:14;;;;;;;2.63;1.20;;;;;;;15.83;100.00;97055.13;5108375;27;20087;-53
2023/02/18 05:09:42;;;;;;;2.15;1.10;;;;;;;15.85;100.00;97058.44;5101946;28;20090;-54
2023/02/18 05:12:10;;;;;;;2.33;1.15;;;;;;;15.55;100.00;97065.97;5104584;27;20118;-52
2023/02/18 05:14:38;;;;;;;1.50;1.13;;;;;;;15.83;100.00;97058.63;5104854;27;20072;-52
2023/02/18 05:17:07;;;;;;;1.50;1.23;;;;;;;15.76;100.00;97036.34;5102327;27;22460;-51
2023/02/18 05:19:35;;;;;;;1.58;1.08;;;;;;;15.70;100.00;97054.75;5104285;27;20536;-52
2023/02/18 05:22:05;;;;;;;3.03;1.65;;;;;;;15.93;100.00;97039.81;5109698;27;20079;-53
2023/02/18 05:24:33;;;;;;;2.45;1.40;;;;;;;16.22;100.00;97042.03;5096819;27;20074;-54
2023/02/18 05:27:01;;;;;;;2.67;1.60;;;;;;;16.19;100.00;97042.38;5104132;27;20499;-54
2023/02/18 05:29:30;;;;;;;2.95;1.48;;;;;;;16.03;100.00;97043.16;5107631;27;20064;-53
2023/02/18 05:31:58;;;;;;;1.67;1.00;;;;;;;15.79;100.00;97037.81;5094527;27;20078;-50
2023/02/18 05:34:26;;;;;;;2.10;1.13;;;;;;;15.18;100.00;97037.94;5094097;28;20451;-53
2023/02/18 05:36:55;;;;;;;1.63;1.17;;;;;;;15.69;100.00;97037.97;5097668;27;20074;-49
2023/02/18 05:39:24;;;;;;;1.58;1.30;;;;;;;15.58;100.00;97035.56;5102188;27;20080;-48
2023/02/18 05:41:53;;;;;;;2.63;1.10;;;;;;;16.01;100.00;97031.88;5103906;27;20444;-54
2023/02/18 05:44:30;;;;;;;1.30;0.82;;;;;;;15.64;100.00;97022.47;5095526;27;20083;-49
2023/02/18 05:46:59;;;;;;;1.48;0.82;;;;;;;15.39;100.00;97023.38;5104196;27;20083;-53
2023/02/18 05:49:27;;;;;;;1.60;1.10;;;;;;;15.46;100.00;97026.25;5096122;27;20083;-53
2023/02/18 05:51:56;;;;;;;3.85;1.30;;;;;;;15.62;100.00;97028.94;5103563;27;20089;-53
2023/02/18 05:54:26;;;;;;;1.65;1.30;;;;;;;15.60;100.00;97028.28;5100669;27;20137;-49
2023/02/18 05:56:55;;;;;;;1.90;1.20;;;;;;;15.44;100.00;97035.19;5096333;27;20071;-48
2023/02/18 05:59:23;;;;;;;1.15;1.05;;;;;;;15.47;100.00;97039.34;5101946;27;20083;-48
2023/02/18 06:01:51;;;;;;;2.35;1.30;;;;;;;15.68;100.00;97038.13;5103691;27;20483;-49
2023/02/18 06:04:19;;;;;;;1.23;1.10;;;;;;;15.81;100.00;97036.66;5102145;28;20099;-51
2023/02/18 06:06:48;;;;;;;3.03;1.30;;;;;;;15.27;100.00;97017.50;5098030;27;20527;-48
2023/02/18 06:09:16;;;;;;;3.13;1.40;;;;;;;15.51;100.00;97030.06;5100314;27;20072;-46
2023/02/18 06:11:46;;;;;;;2.80;1.20;;;;;;;15.67;100.00;97026.66;5098603;27;20079;-52
2023/02/18 06:14:14;;;;;;;2.00;1.20;;;;;;;15.89;100.00;97033.19;5103148;27;20083;-52
2023/02/18 06:16:42;;;;;;;1.30;1.05;;;;;;;15.30;100.00;97034.97;5102641;27;20546;-51
2023/02/18 06:19:10;;;;;;;1.20;0.93;;;;;;;15.37;100.00;97017.38;5100325;27;20559;-51
2023/02/18 06:21:39;;;;;;;2.17;1.10;;;;;;;15.22;100.00;97042.91;5098088;27;20079;-51
2023/02/18 06:24:07;;;;;;;1.33;1.00;;;;;;;15.56;100.00;97040.22;5101921;27;20075;-54
2023/02/18 06:26:35;;;;;;;1.33;1.00;;;;;;;15.36;100.00;97023.72;5096860;28;20102;-51
2023/02/18 06:29:05;;;;;;;1.38;0.90;;;;;;;15.63;100.00;97050.06;5097154;27;20083;-49
2023/02/18 06:31:33;;;;;;;1.40;0.93;;;;;;;15.34;100.00;97053.09;5109543;27;20090;-54
2023/02/18 06:34:01;;;;;;;1.80;0.80;;;;;;;15.56;100.00;97040.22;5100252;27;20086;-52
2023/02/18 06:36:30;;;;;;;0.88;0.68;;;;;;;15.66;100.00;97035.63;5097585;27;20087;-53
2023/02/18 06:38:58;;;;;;;1.08;0.80;;;;;;;15.63;100.00;97027.94;5098343;27;20819;-50
2023/02/18 06:41:27;;;;;;;1.00;0.80;;;;;;;15.24;100.00;97044.41;5098331;27;20088;-49
2023/02/18 06:43:55;;;;;;;1.10;0.90;;;;;;;15.36;100.00;97013.06;5089017;28;20106;-52
2023/02/18 06:46:24;;;;;;;1.27;0.90;;;;;;;15.75;100.00;97034.66;5102977;27;20787;-48
2023/02/18 06:48:53;;;;;;;1.23;0.70;;;;;;;15.86;100.00;97039.69;5112778;27;20074;-52
2023/02/18 06:51:21;;;;;;;1.55;0.65;;;;;;;15.47;100.00;97038.53;5106785;27;20090;-52
2023/02/18 06:53:50;;;;;;;1.52;0.80;;;;;;;15.83;100.00;97037.34;5100932;27;20090;-52
2023/02/18 06:56:18;;;;;;;3.47;1.10;;;;;;;15.62;100.00;97035.09;5097547;28;20071;-53
2023/02/18 06:58:46;;;;;;;1.33;0.90;;;;;;;15.83;100.00;97039.19;5101948;27;20658;-53
2023/02/18 07:01:14;;;;;;;1.30;0.73;;;;;;;15.63;100.00;97036.75;5104655;28;20082;-51
2023/02/18 07:03:44;;;;;;;0.93;0.70;;;;;;;15.84;100.00;97043.50;5105624;27;20079;-49
2023/02/18 07:06:15;;;;;;;0.80;0.70;;;;;;;15.99;100.00;97041.84;5092132;27;20075;-53
2023/02/18 07:08:43;;;;;;;0.82;0.60;;;;;;;16.05;100.00;97011.09;5098108;27;20549;-54
2023/02/18 07:11:12;;;;;;;1.80;0.90;;;;;;;15.85;100.00;97029.19;5091823;28;20484;-49
2023/02/18 07:13:40;;;;;;;0.65;0.52;;;;;;;16.05;100.00;97038.53;5105484;27;20080;-50
2023/02/18 07:16:08;;;;;;;2.53;0.70;;;;;;;16.00;100.00;97040.00;5098683;27;20083;-53
2023/02/18 07:18:37;;;;;;;2.58;0.60;;;;;;;16.26;100.00;97027.41;5098452;27;20083;-47
2023/02/18 07:21:06;;;;;;;1.00;0.75;;;;;;;16.03;100.00;97034.34;5102592;27;20094;-48
2023/02/18 07:23:35;;;;;;;0.50;0.50;;;;;;;16.20;100.00;97035.22;5101244;27;20087;-48
2023/02/18 07:26:05;;;;;;;0.73;0.50;;;;;;;16.28;100.00;97043.22;5103490;27;21043;-49
2023/02/18 07:28:34;;;;;;;0.55;0.40;;;;;;;16.04;100.00;97044.03;5097569;27;20075;-52
2023/02/18 07:31:03;;;;;;;1.52;0.60;;;;;;;16.20;100.00;97049.34;5094336;27;20083;-52
2023/02/18 07:33:31;;;;;;;1.38;0.60;;;;;;;16.93;100.00;97034.34;5099407;27;20461;-47
2023/02/18 07:36:01;;;;;;;0.50;0.50;;;;;;;16.64;100.00;97038.34;5103527;27;20473;-52
2023/02/18 07:38:31;;;;;;;0.75;0.50;;;;;;;16.77;100.00;97028.06;5100626;28;20083;-47
2023/02/18 07:40:59;;;;;;;0.57;0.52;;;;;;;16.83;100.00;97037.22;5100689;27;20079;-50
2023/02/18 07:43:27;;;;;;;0.60;0.50;;;;;;;17.16;100.00;97037.94;5089591;28;20072;-47
2023/02/18 07:45:56;;;;;;;0.75;0.68;;;;;;;16.81;100.00;97032.03;5100875;28;20094;-49
2023/02/18 07:48:24;;;;;;;0.90;0.50;;;;;;;16.79;100.00;97043.84;5101154;28;20456;-49
2023/02/18 07:50:52;;;;;;;1.00;0.65;;;;;;;17.38;100.00;97033.72;5098305;28;20098;-58
2023/02/18 07:53:20;;;;;;;1.77;0.55;;;;;;;16.89;100.00;97023.19;5091883;28;20082;-51
2023/02/18 07:55:50;;;;;;;0.70;0.50;;;;;;;17.02;100.00;97026.16;5092791;28;20687;-51
2023/02/18 07:58:20;;;;;;;0.63;0.50;;;;;;;17.24;100.00;97034.41;5100564;28;20091;-53
2023/02/18 08:00:49;;;;;;;0.80;0.47;;;;;;;17.18;100.00;97029.78;5099407;28;20532;-52
2023/02/18 08:03:18;;;;;;;0.50;0.50;;;;;;;17.44;100.00;97021.50;5104617;28;20075;-51
2023/02/18 08:05:48;;;;;;;2.03;0.50;;;;;;;17.22;100.00;97007.09;5103657;28;20107;-50
2023/02/18 08:08:19;;;;;;;1.87;0.47;;;;;;;17.04;100.00;97016.16;5102092;27;20098;-49
2023/02/18 08:10:47;;;;;;;1.58;0.60;;;;;;;17.37;100.00;97024.03;5098525;28;20090;-52
2023/02/18 08:13:17;;;;;;;0.60;0.45;;;;;;;17.23;100.00;97006.91;5099245;28;20083;-52
2023/02/18 08:15:46;;;;;;;0.95;0.50;;;;;;;16.79;100.00;97018.06;5108165;28;20551;-49
2023/02/18 08:18:16;;;;;;;0.82;0.60;;;;;;;17.48;100.00;97014.81;5097180;27;20483;-53
2023/02/18 08:20:46;;;;;;;0.77;0.57;;;;;;;17.50;100.00;97010.97;5097793;28;20086;-50
2023/02/18 08:23:15;;;;;;;0.95;0.50;;;;;;;17.89;100.00;96998.59;5096188;28;20050;-52
2023/02/18 08:25:46;;;;;;;1.52;0.50;;;;;;;17.67;100.00;96994.88;5095803;28;20075;-46
2023/02/18 08:28:19;;;;;;;1.08;0.65;;;;;;;17.48;100.00;96996.13;5096922;28;20076;-48
2023/02/18 08:30:48;;;;;;;0.70;0.50;;;;;;;17.83;100.00;96996.66;5110616;28;20095;-48
2023/02/18 08:33:17;;;;;;;0.70;0.55;;;;;;;17.75;100.00;96987.66;5099298;28;20076;-50
2023/02/18 08:35:46;;;;;;;0.95;0.57;;;;;;;17.83;100.00;96975.31;5109829;27;20086;-50
2023/02/18 08:38:15;;;;;;;1.30;0.60;;;;;;;18.39;100.00;96976.69;5106673;27;20076;-52
2023/02/18 08:40:43;;;;;;;0.98;0.65;;;;;;;19.06;100.00;96989.19;5099937;27;20071;-52
2023/02/18 08:43:12;;;;;;;0.40;0.40;;;;;;;17.64;100.00;96980.06;5095850;27;20071;-53
2023/02/18 08:45:42;;;;;;;0.88;0.50;;;;;;;17.89;100.00;96988.75;5097532;27;20078;-52
2023/02/18 08:48:11;;;;;;;0.40;0.40;;;;;;;18.30;100.00;96964.41;5112692;27;20074;-51
2023/02/18 08:50:47;;;;;;;0.38;0.30;;;;;;;18.10;100.00;96974.78;5101342;27;20070;-51
2023/02/18 08:53:15;;;;;;;0.43;0.40;;;;;;;18.41;100.00;96985.34;5108309;27;20831;-53
2023/02/18 08:55:44;;;;;;;0.40;0.40;;;;;;;17.99;100.00;96967.19;5096101;28;20072;-50
2023/02/18 08:58:12;;;;;;;0.43;0.43;;;;;;;19.09;100.00;96978.16;5106211;27;20094;-52
2023/02/18 09:00:43;;;;;;;1.60;0.52;;;;;;;18.36;100.00;96974.38;5101207;27;20071;-53
2023/02/18 09:03:13;;;;;;;1.02;0.52;;;;;;;18.14;100.00;96957.38;5096007;27;20074;-52
2023/02/18 09:05:41;;;;;;;0.97;0.50;;;;;;;18.78;100.00;96966.81;5100939;27;20086;-50
2023/02/18 09:08:10;;;;;;;0.93;0.50;;;;;;;18.57;100.00;96971.00;5111916;27;20091;-54
2023/02/18 09:10:38;;;;;;;1.60;0.45;;;;;;;17.78;100.00;96970.50;5097961;27;20070;-49
2023/02/18 09:13:06;;;;;;;0.40;0.30;;;;;;;17.56;100.00;96980.13;5105640;27;20084;-52
2023/02/18 09:15:35;;;;;;;0.50;0.40;;;;;;;17.51;100.00;96985.13;5111580;27;20087;-51
2023/02/18 09:18:04;;;;;;;0.60;0.40;;;;;;;17.48;100.00;96962.34;5097531;27;20067;-48
2023/02/18 09:20:33;;;;;;;1.03;0.40;;;;;;;17.93;100.00;96982.06;5102461;27;20067;-53
2023/02/18 09:23:02;;;;;;;0.90;0.40;;;;;;;18.03;100.00;96969.31;5092780;27;20091;-49
2023/02/18 09:25:30;;;;;;;0.43;0.30;;;;;;;17.99;100.00;96967.19;5101893;27;20071;-53
2023/02/18 09:27:59;;;;;;;0.80;0.47;;;;;;;17.93;100.00;96963.41;5100350;27;20075;-51
2023/02/18 09:30:27;;;;;;;2.75;0.43;;;;;;;17.78;100.00;96965.16;5105185;27;20067;-53
2023/02/18 09:32:56;;;;;;;1.45;0.47;;;;;;;18.13;100.00;96974.41;5105558;27;20094;-50
2023/02/18 09:35:25;;;;;;;2.80;0.60;;;;;;;17.72;100.00;96968.50;5102037;27;20067;-50
2023/02/18 09:37:54;;;;;;;0.60;0.40;;;;;;;17.69;100.00;96950.22;5098901;28;20067;-51
2023/02/18 09:40:26;;;;;;;0.50;0.40;;;;;;;18.06;100.00;96961.94;5101456;27;21031;-50
2023/02/18 09:42:56;;;;;;;1.40;0.60;;;;;;;18.26;100.00;96947.91;5100264;27;20083;-50
2023/02/18 09:45:24;;;;;;;0.77;0.35;;;;;;;17.81;100.00;96931.97;5102097;27;20105;-51
2023/02/18 09:47:53;;;;;;;0.95;0.32;;;;;;;18.16;100.00;96954.53;5101579;27;20118;-49
2023/02/18 09:50:23;;;;;;;0.75;0.50;;;;;;;18.10;100.00;96940.09;5101698;27;20079;-49
2023/02/18 09:52:53;;;;;;;1.33;0.50;;;;;;;17.68;100.00;96925.34;5103416;28;20078;-52
2023/02/18 09:55:24;;;;;;;0.52;0.40;;;;;;;18.25;100.00;96940.09;5094840;27;20063;-48
2023/02/18 09:57:54;;;;;;;0.52;0.40;;;;;;;18.32;100.00;96926.88;5101472;27;20102;-53
2023/02/18 10:00:25;;;;;;;1.42;0.40;;;;;;;17.76;100.00;96922.66;5097801;27;20063;-50
2023/02/18 10:02:55;;;;;;;1.02;0.40;;;;;;;18.29;100.00;96919.22;5099745;27;20067;-49
2023/02/18 10:05:25;;;;;;;0.95;0.50;;;;;;;18.58;94.71;96900.56;5105599;27;20081;-49
2023/02/18 10:07:58;;;;;;;2.83;0.50;;;;;;;18.57;94.50;96901.56;5097379;27;20090;-52
2023/02/18 10:10:36;;;;;;;0.40;0.40;;;;;;;18.47;93.97;96909.81;5101350;27;20102;-54
2023/02/18 10:13:04;;;;;;;1.25;0.50;;;;;;;19.02;100.00;96915.75;5097968;27;20459;-47
2023/02/18 10:15:33;;;;;;;0.35;0.35;;;;;;;18.64;91.79;96923.84;5101981;27;20071;-52
2023/02/18 10:18:02;;;;;;;1.30;0.50;;;;;;;18.91;93.70;96909.03;5094336;27;20068;-53
2023/02/18 10:20:30;;;;;;;1.48;0.50;;;;;;;18.08;93.92;96895.88;5108962;27;20074;-51
2023/02/18 10:23:01;;;;;;;0.63;0.50;;;;;;;18.19;99.49;96903.44;5099821;28;20068;-50
2023/02/18 10:25:30;;;;;;;2.78;0.80;;;;;;;18.39;96.95;96899.25;5093302;27;20548;-51
2023/02/18 10:27:59;;;;;;;0.63;0.43;;;;;;;18.25;94.22;96870.69;5103775;27;20444;-51
2023/02/18 10:30:32;;;;;;;1.10;0.50;;;;;;;18.30;91.52;96894.16;5099945;27;20071;-50
2023/02/18 10:33:16;;;;;;;5.97;0.70;;;;;;;19.21;98.45;96890.28;5093167;27;20067;-52
2023/02/18 10:35:51;;;;;;;0.43;0.43;;;;;;;19.78;83.45;96886.78;5096647;27;20072;-54
2023/02/18 10:38:29;;;;;;;0.60;0.50;;;;;;;19.42;82.93;96876.09;5092834;27;20063;-54
2023/02/18 10:41:03;;;;;;;0.40;0.40;;;;;;;18.69;87.17;96846.66;5100264;27;20074;-52
2023/02/18 10:43:38;;;;;;;2.60;0.60;;;;;;;19.03;84.31;96861.28;5097981;27;20086;-52
2023/02/18 10:46:12;;;;;;;0.55;0.50;;;;;;;19.29;80.87;96857.25;5099660;27;20074;-54
2023/02/18 10:48:56;;;;;;;1.83;0.60;;;;;;;19.04;90.40;96843.41;5093838;27;20449;-52
2023/02/18 10:51:28;;;;;;;0.63;0.40;;;;;;;18.57;93.66;96824.09;5097269;27;20063;-51
2023/02/18 10:53:58;;;;;;;1.42;0.57;;;;;;;18.75;84.70;96837.06;5092597;27;20083;-48
2023/02/18 10:56:35;;;;;;;0.97;0.70;;;;;;;19.19;81.15;96812.09;5096270;27;20502;-51
2023/02/18 10:59:12;;;;;;;0.90;0.63;;;;;;;19.94;75.14;96805.38;5095133;27;20533;-52
2023/02/18 11:01:41;;;;;;;1.15;0.60;;;;;;;20.45;79.21;96820.31;5099263;27;20121;-54
2023/02/18 11:04:13;;;;;;;0.80;0.40;;;;;;;19.21;80.76;96807.41;5096618;27;20058;-49
2023/02/18 11:06:45;;;;;;;0.52;0.52;;;;;;;18.93;83.56;96847.41;5095764;27;20535;-51
2023/02/18 11:09:27;;;;;;;0.60;0.50;;;;;;;18.31;90.78;96789.88;5094075;27;20067;-50
2023/02/18 11:12:01;;;;;;;1.10;0.45;;;;;;;18.65;85.45;96824.00;5103443;27;20087;-51
2023/02/18 11:14:46;;;;;;;2.60;0.70;;;;;;;18.75;89.62;96789.00;5095460;27;20063;-53
2023/02/18 11:17:21;;;;;;;0.93;0.60;;;;;;;18.91;91.17;96810.16;5096807;27;20082;-54
2023/02/18 11:19:53;;;;;;;1.15;0.57;;;;;;;18.30;93.42;96816.75;5093822;28;20439;-50
2023/02/18 11:22:24;;;;;;;0.88;0.60;;;;;;;18.99;87.07;96822.56;5099625;27;20079;-50
2023/02/18 11:24:58;;;;;;;1.02;0.55;;;;;;;18.80;93.85;96809.81;5101756;27;20075;-51
2023/02/18 11:27:31;;;;;;;0.50;0.50;;;;;;;18.56;91.90;96829.63;5093196;27;20071;-52
2023/02/18 11:30:05;;;;;;;2.30;0.52;;;;;;;18.25;95.11;96814.63;5094823;27;20075;-54
2023/02/18 11:32:35;;;;;;;0.55;0.50;;;;;;;18.46;89.69;96779.16;5093212;27;20079;-54
2023/02/18 11:35:05;;;;;;;1.17;0.50;;;;;;;18.64;88.79;96794.78;5093872;27;20076;-51
2023/02/18 11:37:34;;;;;;;1.30;0.60;;;;;;;19.10;86.01;96797.22;5095005;27;20538;-51
2023/02/18 11:40:05;;;;;;;0.85;0.40;;;;;;;19.45;81.05;96798.16;5091878;27;20059;-52
2023/02/18 11:42:33;;;;;;;2.47;0.57;;;;;;;18.48;84.32;96794.00;5101069;28;20067;-54